sensor_id;sensor_type;location;lat;lon;timestamp;P1;durP1;ratioP1;P2;durP2;ratioP2
32746;SDS011;19118;50.860;13.662;2024-02-28T00:01:49;195.48;;;34.95;;
32746;SDS011;19118;50.860;13.662;2024-02-28T00:06:52;161.15;;;34.17;;
32746;SDS011;19118;50.860;13.662;2024-02-28T00:11:53;332.13;;;44.10;;
32746;SDS011;19118;50.860;13.662;2024-02-28T00:16:53;396.10;;;42.13;;
32746;SDS011;19118;50.860;13.662;2024-02-28T00:21:53;194.47;;;35.30;;
32746;SDS011;19118;50.860;13.662;2024-02-28T00:26:54;177.50;;;35.00;;
32746;SDS011;19118;50.860;13.662;2024-02-28T00:31:54;269.70;;;39.00;;
32746;SDS011;19118;50.860;13.662;2024-02-28T00:36:54;187.40;;;33.77;;
32746;SDS011;19118;50.860;13.662;2024-02-28T00:41:55;104.73;;;30.23;;
32746;SDS011;19118;50.860;13.662;2024-02-28T00:46:55;157.05;;;31.38;;
32746;SDS011;19118;50.860;13.662;2024-02-28T00:51:56;105.55;;;30.33;;
32746;SDS011;19118;50.860;13.662;2024-02-28T00:56:56;104.47;;;31.17;;
32746;SDS011;19118;50.860;13.662;2024-02-28T01:01:57;81.63;;;28.57;;
32746;SDS011;19118;50.860;13.662;2024-02-28T01:06:57;86.20;;;27.63;;
32746;SDS011;19118;50.860;13.662;2024-02-28T01:11:57;78.00;;;28.23;;
32746;SDS011;19118;50.860;13.662;2024-02-28T01:16:58;83.05;;;26.38;;
32746;SDS011;19118;50.860;13.662;2024-02-28T01:21:58;85.65;;;27.60;;
32746;SDS011;19118;50.860;13.662;2024-02-28T01:26:59;59.40;;;24.30;;
32746;SDS011;19118;50.860;13.662;2024-02-28T01:31:59;54.17;;;23.57;;
32746;SDS011;19118;50.860;13.662;2024-02-28T01:37:00;52.13;;;21.40;;
32746;SDS011;19118;50.860;13.662;2024-02-28T01:42:00;51.47;;;21.50;;
32746;SDS011;19118;50.860;13.662;2024-02-28T01:47:00;49.58;;;22.40;;
32746;SDS011;19118;50.860;13.662;2024-02-28T01:52:01;62.55;;;23.15;;
32746;SDS011;19118;50.860;13.662;2024-02-28T01:57:03;41.25;;;20.23;;
32746;SDS011;19118;50.860;13.662;2024-02-28T02:02:04;55.53;;;20.60;;
32746;SDS011;19118;50.860;13.662;2024-02-28T02:07:06;43.90;;;20.20;;
32746;SDS011;19118;50.860;13.662;2024-02-28T02:12:07;77.90;;;21.63;;
32746;SDS011;19118;50.860;13.662;2024-02-28T02:17:07;44.40;;;20.55;;
32746;SDS011;19118;50.860;13.662;2024-02-28T02:22:08;71.18;;;23.17;;
32746;SDS011;19118;50.860;13.662;2024-02-28T02:27:10;53.83;;;22.63;;
32746;SDS011;19118;50.860;13.662;2024-02-28T02:32:10;84.95;;;22.65;;
32746;SDS011;19118;50.860;13.662;2024-02-28T02:37:10;60.37;;;21.57;;
32746;SDS011;19118;50.860;13.662;2024-02-28T02:42:11;57.78;;;20.25;;
32746;SDS011;19118;50.860;13.662;2024-02-28T02:47:13;91.10;;;22.27;;
32746;SDS011;19118;50.860;13.662;2024-02-28T02:52:14;127.85;;;23.00;;
32746;SDS011;19118;50.860;13.662;2024-02-28T02:57:14;142.53;;;24.83;;
32746;SDS011;19118;50.860;13.662;2024-02-28T03:02:14;107.65;;;22.65;;
32746;SDS011;19118;50.860;13.662;2024-02-28T03:07:14;90.83;;;22.10;;
32746;SDS011;19118;50.860;13.662;2024-02-28T03:12:15;99.57;;;21.30;;
32746;SDS011;19118;50.860;13.662;2024-02-28T03:17:15;219.23;;;25.13;;
32746;SDS011;19118;50.860;13.662;2024-02-28T03:22:15;107.53;;;22.67;;
32746;SDS011;19118;50.860;13.662;2024-02-28T03:27:16;122.45;;;23.95;;
32746;SDS011;19118;50.860;13.662;2024-02-28T03:32:16;161.83;;;24.30;;
32746;SDS011;19118;50.860;13.662;2024-02-28T03:37:17;194.67;;;25.87;;
32746;SDS011;19118;50.860;13.662;2024-02-28T03:42:17;133.73;;;23.87;;
32746;SDS011;19118;50.860;13.662;2024-02-28T03:47:17;119.90;;;23.43;;
32746;SDS011;19118;50.860;13.662;2024-02-28T03:52:17;71.13;;;21.88;;
32746;SDS011;19118;50.860;13.662;2024-02-28T03:57:18;100.30;;;23.52;;
32746;SDS011;19118;50.860;13.662;2024-02-28T04:02:18;96.60;;;25.33;;
32746;SDS011;19118;50.860;13.662;2024-02-28T04:07:18;146.50;;;27.43;;
32746;SDS011;19118;50.860;13.662;2024-02-28T04:12:19;132.48;;;27.95;;
32746;SDS011;19118;50.860;13.662;2024-02-28T04:17:19;208.87;;;27.67;;
32746;SDS011;19118;50.860;13.662;2024-02-28T04:22:19;195.93;;;30.07;;
32746;SDS011;19118;50.860;13.662;2024-02-28T04:27:20;296.77;;;34.22;;
32746;SDS011;19118;50.860;13.662;2024-02-28T04:32:20;352.60;;;32.33;;
32746;SDS011;19118;50.860;13.662;2024-02-28T04:37:20;63.42;;;22.85;;
32746;SDS011;19118;50.860;13.662;2024-02-28T04:42:21;108.38;;;25.63;;
32746;SDS011;19118;50.860;13.662;2024-02-28T04:47:21;149.00;;;26.80;;
32746;SDS011;19118;50.860;13.662;2024-02-28T04:52:23;105.35;;;24.23;;
32746;SDS011;19118;50.860;13.662;2024-02-28T04:57:24;98.63;;;23.17;;
32746;SDS011;19118;50.860;13.662;2024-02-28T05:02:25;95.53;;;22.45;;
32746;SDS011;19118;50.860;13.662;2024-02-28T05:07:25;107.20;;;25.40;;
32746;SDS011;19118;50.860;13.662;2024-02-28T05:12:26;83.07;;;23.80;;
32746;SDS011;19118;50.860;13.662;2024-02-28T05:17:26;67.23;;;22.80;;
32746;SDS011;19118;50.860;13.662;2024-02-28T05:22:27;69.03;;;22.60;;
32746;SDS011;19118;50.860;13.662;2024-02-28T05:27:27;126.70;;;24.10;;
32746;SDS011;19118;50.860;13.662;2024-02-28T05:32:28;169.60;;;29.70;;
32746;SDS011;19118;50.860;13.662;2024-02-28T05:37:28;138.47;;;27.50;;
32746;SDS011;19118;50.860;13.662;2024-02-28T05:42:28;114.63;;;27.33;;
32746;SDS011;19118;50.860;13.662;2024-02-28T05:47:29;155.68;;;31.73;;
32746;SDS011;19118;50.860;13.662;2024-02-28T05:52:29;131.55;;;28.67;;
32746;SDS011;19118;50.860;13.662;2024-02-28T05:57:30;140.40;;;29.80;;
32746;SDS011;19118;50.860;13.662;2024-02-28T06:02:30;130.38;;;26.23;;
32746;SDS011;19118;50.860;13.662;2024-02-28T06:07:30;291.77;;;33.50;;
32746;SDS011;19118;50.860;13.662;2024-02-28T06:12:31;94.88;;;26.63;;
32746;SDS011;19118;50.860;13.662;2024-02-28T06:17:31;119.90;;;26.25;;
32746;SDS011;19118;50.860;13.662;2024-02-28T06:22:32;99.97;;;29.03;;
32746;SDS011;19118;50.860;13.662;2024-02-28T06:27:32;106.87;;;27.30;;
32746;SDS011;19118;50.860;13.662;2024-02-28T06:32:33;90.10;;;23.15;;
32746;SDS011;19118;50.860;13.662;2024-02-28T06:37:33;98.43;;;22.17;;
32746;SDS011;19118;50.860;13.662;2024-02-28T06:42:34;95.13;;;24.20;;
32746;SDS011;19118;50.860;13.662;2024-02-28T06:47:36;78.78;;;22.38;;
32746;SDS011;19118;50.860;13.662;2024-02-28T06:52:37;84.47;;;23.80;;
32746;SDS011;19118;50.860;13.662;2024-02-28T06:57:37;75.03;;;20.63;;
32746;SDS011;19118;50.860;13.662;2024-02-28T07:02:38;89.63;;;20.33;;
32746;SDS011;19118;50.860;13.662;2024-02-28T07:07:38;76.20;;;20.55;;
32746;SDS011;19118;50.860;13.662;2024-02-28T07:12:39;80.72;;;20.00;;
32746;SDS011;19118;50.860;13.662;2024-02-28T07:17:39;71.13;;;17.37;;
32746;SDS011;19118;50.860;13.662;2024-02-28T07:22:42;69.23;;;19.23;;
32746;SDS011;19118;50.860;13.662;2024-02-28T07:27:43;68.55;;;19.27;;
32746;SDS011;19118;50.860;13.662;2024-02-28T07:32:43;52.00;;;17.30;;
32746;SDS011;19118;50.860;13.662;2024-02-28T07:37:44;67.23;;;18.90;;
32746;SDS011;19118;50.860;13.662;2024-02-28T07:42:44;68.30;;;19.75;;
32746;SDS011;19118;50.860;13.662;2024-02-28T07:47:44;51.43;;;20.17;;
32746;SDS011;19118;50.860;13.662;2024-02-28T07:52:44;50.07;;;17.70;;
32746;SDS011;19118;50.860;13.662;2024-02-28T07:57:45;51.00;;;15.95;;
32746;SDS011;19118;50.860;13.662;2024-02-28T08:02:45;43.70;;;16.63;;
32746;SDS011;19118;50.860;13.662;2024-02-28T08:07:46;66.72;;;21.20;;
32746;SDS011;19118;50.860;13.662;2024-02-28T08:12:46;49.83;;;19.33;;
32746;SDS011;19118;50.860;13.662;2024-02-28T08:17:47;57.17;;;19.37;;
32746;SDS011;19118;50.860;13.662;2024-02-28T08:22:47;33.35;;;12.88;;
32746;SDS011;19118;50.860;13.662;2024-02-28T08:27:47;37.27;;;13.57;;
32746;SDS011;19118;50.860;13.662;2024-02-28T08:32:48;38.88;;;13.90;;
32746;SDS011;19118;50.860;13.662;2024-02-28T08:37:49;35.20;;;13.52;;
32746;SDS011;19118;50.860;13.662;2024-02-28T08:42:49;51.22;;;18.30;;
32746;SDS011;19118;50.860;13.662;2024-02-28T08:47:53;53.90;;;23.55;;
32746;SDS011;19118;50.860;13.662;2024-02-28T08:52:53;50.13;;;18.60;;
32746;SDS011;19118;50.860;13.662;2024-02-28T08:58:03;59.10;;;19.42;;
32746;SDS011;19118;50.860;13.662;2024-02-28T09:03:04;62.72;;;19.70;;
32746;SDS011;19118;50.860;13.662;2024-02-28T09:08:05;124.90;;;23.50;;
32746;SDS011;19118;50.860;13.662;2024-02-28T09:13:05;60.90;;;19.70;;
32746;SDS011;19118;50.860;13.662;2024-02-28T09:18:07;71.95;;;18.15;;
32746;SDS011;19118;50.860;13.662;2024-02-28T09:23:08;51.22;;;18.50;;
32746;SDS011;19118;50.860;13.662;2024-02-28T09:28:08;196.70;;;20.20;;
32746;SDS011;19118;50.860;13.662;2024-02-28T09:33:12;240.68;;;22.08;;
32746;SDS011;19118;50.860;13.662;2024-02-28T09:38:13;130.93;;;18.58;;
32746;SDS011;19118;50.860;13.662;2024-02-28T09:43:24;100.15;;;18.80;;
32746;SDS011;19118;50.860;13.662;2024-02-28T09:48:35;52.85;;;19.23;;
32746;SDS011;19118;50.860;13.662;2024-02-28T09:53:35;92.65;;;20.10;;
32746;SDS011;19118;50.860;13.662;2024-02-28T09:58:38;59.35;;;19.38;;
32746;SDS011;19118;50.860;13.662;2024-02-28T10:03:39;107.07;;;23.00;;
32746;SDS011;19118;50.860;13.662;2024-02-28T10:08:41;95.22;;;21.15;;
32746;SDS011;19118;50.860;13.662;2024-02-28T10:13:41;65.88;;;22.35;;
32746;SDS011;19118;50.860;13.662;2024-02-28T10:18:42;54.73;;;21.03;;
32746;SDS011;19118;50.860;13.662;2024-02-28T10:23:44;54.42;;;22.45;;
32746;SDS011;19118;50.860;13.662;2024-02-28T10:28:45;59.53;;;21.08;;
32746;SDS011;19118;50.860;13.662;2024-02-28T10:33:45;47.80;;;19.65;;
32746;SDS011;19118;50.860;13.662;2024-02-28T10:38:46;42.65;;;19.77;;
32746;SDS011;19118;50.860;13.662;2024-02-28T10:43:46;37.15;;;17.77;;
32746;SDS011;19118;50.860;13.662;2024-02-28T10:48:49;45.00;;;20.58;;
32746;SDS011;19118;50.860;13.662;2024-02-28T10:53:59;39.60;;;17.63;;
32746;SDS011;19118;50.860;13.662;2024-02-28T10:59:08;33.47;;;15.63;;
32746;SDS011;19118;50.860;13.662;2024-02-28T11:04:13;29.73;;;14.35;;
32746;SDS011;19118;50.860;13.662;2024-02-28T11:09:20;31.10;;;15.77;;
32746;SDS011;19118;50.860;13.662;2024-02-28T11:14:25;46.33;;;19.75;;
32746;SDS011;19118;50.860;13.662;2024-02-28T11:19:27;38.58;;;18.80;;
32746;SDS011;19118;50.860;13.662;2024-02-28T11:24:30;41.15;;;18.05;;
32746;SDS011;19118;50.860;13.662;2024-02-28T11:29:32;36.47;;;16.65;;
32746;SDS011;19118;50.860;13.662;2024-02-28T11:34:33;33.53;;;15.68;;
32746;SDS011;19118;50.860;13.662;2024-02-28T11:39:34;44.80;;;18.13;;
32746;SDS011;19118;50.860;13.662;2024-02-28T11:44:34;39.30;;;19.85;;
32746;SDS011;19118;50.860;13.662;2024-02-28T11:49:35;34.75;;;16.63;;
32746;SDS011;19118;50.860;13.662;2024-02-28T11:54:35;38.47;;;18.23;;
32746;SDS011;19118;50.860;13.662;2024-02-28T11:59:36;39.20;;;17.93;;
32746;SDS011;19118;50.860;13.662;2024-02-28T12:04:36;35.92;;;16.63;;
32746;SDS011;19118;50.860;13.662;2024-02-28T12:09:37;34.37;;;15.80;;
32746;SDS011;19118;50.860;13.662;2024-02-28T12:14:38;37.50;;;17.48;;
32746;SDS011;19118;50.860;13.662;2024-02-28T12:19:39;31.13;;;15.60;;
32746;SDS011;19118;50.860;13.662;2024-02-28T12:24:39;29.45;;;15.48;;
32746;SDS011;19118;50.860;13.662;2024-02-28T12:29:40;31.83;;;16.30;;
32746;SDS011;19118;50.860;13.662;2024-02-28T12:34:40;27.75;;;15.98;;
32746;SDS011;19118;50.860;13.662;2024-02-28T12:39:40;30.67;;;15.67;;
32746;SDS011;19118;50.860;13.662;2024-02-28T12:44:41;32.30;;;16.77;;
32746;SDS011;19118;50.860;13.662;2024-02-28T12:49:45;27.58;;;15.80;;
32746;SDS011;19118;50.860;13.662;2024-02-28T12:54:46;34.43;;;16.70;;
32746;SDS011;19118;50.860;13.662;2024-02-28T12:59:46;32.07;;;15.73;;
32746;SDS011;19118;50.860;13.662;2024-02-28T13:04:46;28.90;;;16.47;;
32746;SDS011;19118;50.860;13.662;2024-02-28T13:09:47;43.57;;;20.10;;
32746;SDS011;19118;50.860;13.662;2024-02-28T13:14:47;38.70;;;19.73;;
32746;SDS011;19118;50.860;13.662;2024-02-28T13:19:47;36.60;;;19.27;;
32746;SDS011;19118;50.860;13.662;2024-02-28T13:24:47;40.27;;;20.27;;
32746;SDS011;19118;50.860;13.662;2024-02-28T13:29:48;39.37;;;20.00;;
32746;SDS011;19118;50.860;13.662;2024-02-28T13:34:48;39.67;;;20.87;;
32746;SDS011;19118;50.860;13.662;2024-02-28T13:39:49;39.80;;;21.20;;
32746;SDS011;19118;50.860;13.662;2024-02-28T13:44:52;39.45;;;20.08;;
32746;SDS011;19118;50.860;13.662;2024-02-28T13:49:52;37.53;;;20.27;;
32746;SDS011;19118;50.860;13.662;2024-02-28T13:54:53;39.22;;;19.77;;
32746;SDS011;19118;50.860;13.662;2024-02-28T13:59:54;40.90;;;20.40;;
32746;SDS011;19118;50.860;13.662;2024-02-28T14:04:54;44.10;;;19.75;;
32746;SDS011;19118;50.860;13.662;2024-02-28T14:09:55;41.30;;;19.15;;
32746;SDS011;19118;50.860;13.662;2024-02-28T14:14:57;35.05;;;19.05;;
32746;SDS011;19118;50.860;13.662;2024-02-28T14:19:57;38.35;;;19.58;;
32746;SDS011;19118;50.860;13.662;2024-02-28T14:24:58;35.13;;;18.83;;
32746;SDS011;19118;50.860;13.662;2024-02-28T14:29:59;39.42;;;22.13;;
32746;SDS011;19118;50.860;13.662;2024-02-28T14:34:59;40.70;;;20.70;;
32746;SDS011;19118;50.860;13.662;2024-02-28T14:40:00;39.27;;;20.63;;
32746;SDS011;19118;50.860;13.662;2024-02-28T14:45:06;39.20;;;19.05;;
32746;SDS011;19118;50.860;13.662;2024-02-28T14:50:08;37.35;;;19.85;;
32746;SDS011;19118;50.860;13.662;2024-02-28T14:55:10;87.32;;;35.15;;
32746;SDS011;19118;50.860;13.662;2024-02-28T15:00:11;44.85;;;22.17;;
32746;SDS011;19118;50.860;13.662;2024-02-28T15:05:15;46.70;;;24.13;;
32746;SDS011;19118;50.860;13.662;2024-02-28T15:10:15;43.80;;;21.40;;
32746;SDS011;19118;50.860;13.662;2024-02-28T15:15:15;34.10;;;15.55;;
32746;SDS011;19118;50.860;13.662;2024-02-28T15:20:16;33.53;;;18.50;;
32746;SDS011;19118;50.860;13.662;2024-02-28T15:25:16;34.75;;;18.80;;
32746;SDS011;19118;50.860;13.662;2024-02-28T15:30:16;36.97;;;18.50;;
32746;SDS011;19118;50.860;13.662;2024-02-28T15:35:17;28.55;;;16.52;;
32746;SDS011;19118;50.860;13.662;2024-02-28T15:40:17;30.95;;;15.98;;
32746;SDS011;19118;50.860;13.662;2024-02-28T15:45:21;29.92;;;15.80;;
32746;SDS011;19118;50.860;13.662;2024-02-28T15:50:21;29.60;;;15.40;;
32746;SDS011;19118;50.860;13.662;2024-02-28T15:55:21;70.97;;;28.13;;
32746;SDS011;19118;50.860;13.662;2024-02-28T16:00:22;47.10;;;21.95;;
32746;SDS011;19118;50.860;13.662;2024-02-28T16:05:23;83.73;;;37.37;;
32746;SDS011;19118;50.860;13.662;2024-02-28T16:10:24;70.13;;;31.38;;
32746;SDS011;19118;50.860;13.662;2024-02-28T16:15:25;39.60;;;19.00;;
32746;SDS011;19118;50.860;13.662;2024-02-28T16:20:25;35.40;;;17.93;;
32746;SDS011;19118;50.860;13.662;2024-02-28T16:25:25;32.67;;;16.63;;
32746;SDS011;19118;50.860;13.662;2024-02-28T16:30:29;35.05;;;16.35;;
32746;SDS011;19118;50.860;13.662;2024-02-28T16:35:29;32.30;;;17.63;;
32746;SDS011;19118;50.860;13.662;2024-02-28T16:40:30;35.35;;;16.27;;
32746;SDS011;19118;50.860;13.662;2024-02-28T16:45:31;35.90;;;17.17;;
32746;SDS011;19118;50.860;13.662;2024-02-28T16:50:31;34.63;;;17.33;;
32746;SDS011;19118;50.860;13.662;2024-02-28T16:55:32;33.92;;;16.27;;
32746;SDS011;19118;50.860;13.662;2024-02-28T17:00:32;36.45;;;16.63;;
32746;SDS011;19118;50.860;13.662;2024-02-28T17:05:33;31.45;;;15.52;;
32746;SDS011;19118;50.860;13.662;2024-02-28T17:10:38;38.65;;;17.77;;
32746;SDS011;19118;50.860;13.662;2024-02-28T17:15:39;36.45;;;16.95;;
32746;SDS011;19118;50.860;13.662;2024-02-28T17:20:39;35.72;;;16.27;;
32746;SDS011;19118;50.860;13.662;2024-02-28T17:25:40;36.78;;;16.27;;
32746;SDS011;19118;50.860;13.662;2024-02-28T17:30:40;29.95;;;14.75;;
32746;SDS011;19118;50.860;13.662;2024-02-28T17:35:40;32.27;;;14.97;;
32746;SDS011;19118;50.860;13.662;2024-02-28T17:40:41;34.65;;;15.88;;
32746;SDS011;19118;50.860;13.662;2024-02-28T17:45:42;30.08;;;14.02;;
32746;SDS011;19118;50.860;13.662;2024-02-28T17:50:42;33.83;;;15.00;;
32746;SDS011;19118;50.860;13.662;2024-02-28T17:55:43;33.30;;;15.30;;
32746;SDS011;19118;50.860;13.662;2024-02-28T18:00:43;40.03;;;16.83;;
32746;SDS011;19118;50.860;13.662;2024-02-28T18:05:46;36.28;;;15.65;;
32746;SDS011;19118;50.860;13.662;2024-02-28T18:10:46;35.65;;;16.77;;
32746;SDS011;19118;50.860;13.662;2024-02-28T18:15:47;41.30;;;15.77;;
32746;SDS011;19118;50.860;13.662;2024-02-28T18:20:48;35.22;;;15.43;;
32746;SDS011;19118;50.860;13.662;2024-02-28T18:25:49;33.65;;;15.15;;
32746;SDS011;19118;50.860;13.662;2024-02-28T18:30:49;35.47;;;15.93;;
32746;SDS011;19118;50.860;13.662;2024-02-28T18:35:49;35.17;;;15.47;;
32746;SDS011;19118;50.860;13.662;2024-02-28T18:40:50;34.97;;;15.00;;
32746;SDS011;19118;50.860;13.662;2024-02-28T18:45:51;39.77;;;17.57;;
32746;SDS011;19118;50.860;13.662;2024-02-28T18:50:52;37.60;;;16.45;;
32746;SDS011;19118;50.860;13.662;2024-02-28T18:55:52;44.73;;;21.53;;
32746;SDS011;19118;50.860;13.662;2024-02-28T19:00:53;53.90;;;19.23;;
32746;SDS011;19118;50.860;13.662;2024-02-28T19:05:53;46.43;;;21.10;;
32746;SDS011;19118;50.860;13.662;2024-02-28T19:10:54;49.63;;;23.27;;
32746;SDS011;19118;50.860;13.662;2024-02-28T19:15:54;52.20;;;26.05;;
32746;SDS011;19118;50.860;13.662;2024-02-28T19:20:54;44.22;;;19.90;;
32746;SDS011;19118;50.860;13.662;2024-02-28T19:25:55;43.70;;;20.35;;
32746;SDS011;19118;50.860;13.662;2024-02-28T19:30:55;45.20;;;20.63;;
32746;SDS011;19118;50.860;13.662;2024-02-28T19:35:57;42.88;;;19.52;;
32746;SDS011;19118;50.860;13.662;2024-02-28T19:40:58;42.57;;;20.03;;
32746;SDS011;19118;50.860;13.662;2024-02-28T19:45:58;47.50;;;20.40;;
32746;SDS011;19118;50.860;13.662;2024-02-28T19:50:59;37.60;;;18.30;;
32746;SDS011;19118;50.860;13.662;2024-02-28T19:56:00;39.65;;;17.55;;
32746;SDS011;19118;50.860;13.662;2024-02-28T20:01:00;41.77;;;18.63;;
32746;SDS011;19118;50.860;13.662;2024-02-28T20:06:00;39.33;;;18.00;;
32746;SDS011;19118;50.860;13.662;2024-02-28T20:11:02;48.38;;;18.33;;
32746;SDS011;19118;50.860;13.662;2024-02-28T20:16:03;40.20;;;17.60;;
32746;SDS011;19118;50.860;13.662;2024-02-28T20:21:04;47.38;;;20.02;;
32746;SDS011;19118;50.860;13.662;2024-02-28T20:26:08;41.58;;;18.38;;
32746;SDS011;19118;50.860;13.662;2024-02-28T20:31:09;39.97;;;16.88;;
32746;SDS011;19118;50.860;13.662;2024-02-28T20:36:09;39.13;;;16.00;;
32746;SDS011;19118;50.860;13.662;2024-02-28T20:41:09;51.20;;;18.02;;
32746;SDS011;19118;50.860;13.662;2024-02-28T20:46:10;41.65;;;16.80;;
32746;SDS011;19118;50.860;13.662;2024-02-28T20:51:10;43.83;;;16.30;;
32746;SDS011;19118;50.860;13.662;2024-02-28T20:56:11;37.20;;;16.60;;
32746;SDS011;19118;50.860;13.662;2024-02-28T21:01:11;47.00;;;17.35;;
32746;SDS011;19118;50.860;13.662;2024-02-28T21:06:12;49.73;;;18.63;;
32746;SDS011;19118;50.860;13.662;2024-02-28T21:11:17;48.03;;;18.52;;
32746;SDS011;19118;50.860;13.662;2024-02-28T21:16:17;44.65;;;18.30;;
32746;SDS011;19118;50.860;13.662;2024-02-28T21:21:18;42.47;;;17.93;;
32746;SDS011;19118;50.860;13.662;2024-02-28T21:26:18;41.47;;;17.13;;
32746;SDS011;19118;50.860;13.662;2024-02-28T21:31:19;47.67;;;17.20;;
32746;SDS011;19118;50.860;13.662;2024-02-28T21:36:19;46.55;;;17.15;;
32746;SDS011;19118;50.860;13.662;2024-02-28T21:41:21;50.15;;;18.60;;
32746;SDS011;19118;50.860;13.662;2024-02-28T21:46:21;45.17;;;18.13;;
32746;SDS011;19118;50.860;13.662;2024-02-28T21:51:22;44.60;;;16.90;;
32746;SDS011;19118;50.860;13.662;2024-02-28T21:56:22;42.47;;;17.98;;
32746;SDS011;19118;50.860;13.662;2024-02-28T22:01:22;38.50;;;14.90;;
32746;SDS011;19118;50.860;13.662;2024-02-28T22:06:24;45.42;;;17.42;;
32746;SDS011;19118;50.860;13.662;2024-02-28T22:11:25;36.13;;;16.05;;
32746;SDS011;19118;50.860;13.662;2024-02-28T22:16:26;44.10;;;16.55;;
32746;SDS011;19118;50.860;13.662;2024-02-28T22:21:26;42.40;;;15.75;;
32746;SDS011;19118;50.860;13.662;2024-02-28T22:26:26;35.97;;;15.07;;
32746;SDS011;19118;50.860;13.662;2024-02-28T22:31:27;47.95;;;16.73;;
32746;SDS011;19118;50.860;13.662;2024-02-28T22:36:28;46.20;;;15.82;;
32746;SDS011;19118;50.860;13.662;2024-02-28T22:41:30;40.33;;;17.23;;
32746;SDS011;19118;50.860;13.662;2024-02-28T22:46:31;43.80;;;16.17;;
32746;SDS011;19118;50.860;13.662;2024-02-28T22:51:31;39.15;;;16.67;;
32746;SDS011;19118;50.860;13.662;2024-02-28T22:56:31;45.97;;;17.30;;
32746;SDS011;19118;50.860;13.662;2024-02-28T23:01:32;49.10;;;17.93;;
32746;SDS011;19118;50.860;13.662;2024-02-28T23:06:32;42.17;;;16.43;;
32746;SDS011;19118;50.860;13.662;2024-02-28T23:11:32;42.60;;;16.63;;
32746;SDS011;19118;50.860;13.662;2024-02-28T23:16:33;40.92;;;16.05;;
32746;SDS011;19118;50.860;13.662;2024-02-28T23:21:36;35.47;;;15.70;;
32746;SDS011;19118;50.860;13.662;2024-02-28T23:26:39;34.45;;;14.55;;
32746;SDS011;19118;50.860;13.662;2024-02-28T23:31:40;31.75;;;13.80;;
32746;SDS011;19118;50.860;13.662;2024-02-28T23:36:40;34.53;;;15.98;;
32746;SDS011;19118;50.860;13.662;2024-02-28T23:41:41;40.15;;;13.13;;
32746;SDS011;19118;50.860;13.662;2024-02-28T23:46:45;32.53;;;13.00;;
32746;SDS011;19118;50.860;13.662;2024-02-28T23:51:46;29.48;;;12.15;;
32746;SDS011;19118;50.860;13.662;2024-02-28T23:56:46;27.83;;;11.52;;
